Time,TemperatureF,DewpointF,PressureIn,WindDirection,WindDirectionDegrees,WindSpeedMPH,WindSpeedGustMPH,Humidity,HourlyPrecipIn,Conditions,Clouds,dailyrainin,SolarRadiationWatts/m^2,SoftwareType,DateUTC
2013-04-07 00:02:00,52.0,28.0,-100.00,WSW,253,10.0,17.0,38,-99.99,,,0.00,0.000000,,2013-04-07 07:02:00,
2013-04-07 00:12:00,52.0,28.0,-100.00,WSW,253,10.0,17.0,38,-99.99,,,0.00,0.000000,,2013-04-07 07:12:00,
2013-04-07 00:42:00,51.0,28.0,-100.00,West,263,10.0,16.0,40,-99.99,,,0.00,0.000000,,2013-04-07 07:42:00,
2013-04-07 00:52:00,51.0,28.0,-100.00,West,263,10.0,16.0,40,-99.99,,,0.00,0.000000,,2013-04-07 07:52:00,
2013-04-07 01:02:00,51.0,28.0,-100.00,West,263,10.0,16.0,40,-99.99,,,0.00,0.000000,,2013-04-07 08:02:00,
2013-04-07 01:12:00,51.0,28.0,-100.00,West,263,10.0,16.0,40,-99.99,,,0.00,0.000000,,2013-04-07 08:12:00,
2013-04-07 01:42:00,48.0,28.0,-100.00,WNW,284,3.0,5.0,44,-99.99,,,0.00,0.000000,,2013-04-07 08:42:00,
2013-04-07 01:53:00,48.0,28.0,-100.00,WNW,284,3.0,5.0,44,-99.99,,,0.00,0.000000,,2013-04-07 08:53:00,
2013-04-07 02:02:00,48.0,28.0,-100.00,WNW,284,3.0,5.0,44,-99.99,,,0.00,0.000000,,2013-04-07 09:02:00,
2013-04-07 02:12:00,48.0,28.0,-100.00,WNW,284,3.0,5.0,44,-99.99,,,0.00,0.000000,,2013-04-07 09:12:00,
2013-04-07 02:43:00,42.0,26.0,-100.00,SE,136,4.0,5.0,54,-99.99,,,0.00,0.000000,,2013-04-07 09:43:00,
2013-04-07 02:53:00,42.0,26.0,-100.00,SE,136,4.0,5.0,54,-99.99,,,0.00,0.000000,,2013-04-07 09:53:00,
2013-04-07 03:42:00,39.0,27.0,-100.00,WSW,255,4.0,7.0,60,-99.99,,,0.00,0.000000,,2013-04-07 10:42:00,
2013-04-07 03:53:00,39.0,27.0,-100.00,WSW,255,4.0,7.0,60,-99.99,,,0.00,0.000000,,2013-04-07 10:53:00,
2013-04-07 04:42:00,45.0,27.0,-100.00,NNW,329,2.0,3.0,49,-99.99,,,0.00,0.120000,,2013-04-07 11:42:00,
2013-04-07 04:53:00,45.0,27.0,-100.00,NNW,329,2.0,3.0,49,-99.99,,,0.00,0.120000,,2013-04-07 11:53:00,
2013-04-07 05:02:00,45.0,27.0,-100.00,NNW,329,2.0,3.0,49,-99.99,,,0.00,0.120000,,2013-04-07 12:02:00,
2013-04-07 05:12:00,45.0,27.0,-100.00,NNW,329,2.0,3.0,49,-99.99,,,0.00,0.120000,,2013-04-07 12:12:00,
2013-04-07 05:42:00,41.0,25.0,-100.00,ESE,115,3.0,5.0,53,-99.99,,,0.00,0.120000,,2013-04-07 12:42:00,
2013-04-07 05:53:00,41.0,25.0,-100.00,ESE,115,3.0,5.0,53,-99.99,,,0.00,0.120000,,2013-04-07 12:53:00,
2013-04-07 06:03:00,41.0,25.0,-100.00,ESE,115,3.0,5.0,53,-99.99,,,0.00,0.120000,,2013-04-07 13:03:00,
2013-04-07 06:12:00,41.0,25.0,-100.00,ESE,115,3.0,5.0,53,-99.99,,,0.00,0.120000,,2013-04-07 13:12:00,
2013-04-07 06:42:00,38.0,26.0,-100.00,North,1,1.0,4.0,61,-99.99,,,0.00,0.230000,,2013-04-07 13:42:00,
2013-04-07 06:53:00,38.0,26.0,-100.00,North,1,1.0,4.0,61,-99.99,,,0.00,0.230000,,2013-04-07 13:53:00,
2013-04-07 07:43:00,40.0,27.0,-100.00,West,270,1.0,5.0,57,-99.99,,,0.00,65.550003,,2013-04-07 14:43:00,
2013-04-07 07:53:00,40.0,27.0,-100.00,West,270,1.0,5.0,57,-99.99,,,0.00,65.550003,,2013-04-07 14:53:00,
2013-04-07 08:02:00,40.0,27.0,-100.00,West,270,1.0,5.0,57,-99.99,,,0.00,65.550003,,2013-04-07 15:02:00,
2013-04-07 08:12:00,40.0,27.0,-100.00,West,270,1.0,5.0,57,-99.99,,,0.00,65.550003,,2013-04-07 15:12:00,
2013-04-07 08:43:00,50.0,31.0,-100.00,South,175,3.0,7.0,46,-99.99,,,0.00,231.050003,,2013-04-07 15:43:00,
2013-04-07 08:54:00,50.0,31.0,-100.00,South,175,3.0,7.0,46,-99.99,,,0.00,231.050003,,2013-04-07 15:54:00,
2013-04-07 09:03:00,50.0,31.0,-100.00,South,175,3.0,7.0,46,-99.99,,,0.00,231.050003,,2013-04-07 16:03:00,
2013-04-07 09:13:00,50.0,31.0,-100.00,South,175,3.0,7.0,46,-99.99,,,0.00,231.050003,,2013-04-07 16:13:00,
2013-04-07 09:42:00,54.0,31.0,-100.00,SSW,195,4.0,7.0,40,-99.99,,,0.00,331.920013,,2013-04-07 16:42:00,
2013-04-07 09:54:00,54.0,31.0,-100.00,SSW,195,4.0,7.0,40,-99.99,,,0.00,331.920013,,2013-04-07 16:54:00,
2013-04-07 10:03:00,54.0,31.0,-100.00,SSW,195,4.0,7.0,40,-99.99,,,0.00,331.920013,,2013-04-07 17:03:00,
2013-04-07 10:12:00,54.0,31.0,-100.00,SSW,195,4.0,7.0,40,-99.99,,,0.00,331.920013,,2013-04-07 17:12:00,
2013-04-07 10:42:00,57.0,30.0,-100.00,South,188,7.0,17.0,35,-99.99,,,0.00,666.059998,,2013-04-07 17:42:00,
2013-04-07 10:53:00,57.0,30.0,-100.00,South,188,7.0,17.0,35,-99.99,,,0.00,666.059998,,2013-04-07 17:53:00,
2013-04-07 11:02:00,57.0,30.0,-100.00,South,188,7.0,17.0,35,-99.99,,,0.00,666.059998,,2013-04-07 18:02:00,
2013-04-07 11:12:00,57.0,30.0,-100.00,South,188,7.0,17.0,35,-99.99,,,0.00,666.059998,,2013-04-07 18:12:00,
2013-04-07 11:42:00,61.0,28.0,-100.00,SW,226,8.0,17.0,28,-99.99,,,0.00,803.309998,,2013-04-07 18:42:00,
2013-04-07 11:52:00,61.0,28.0,-100.00,SW,226,8.0,17.0,28,-99.99,,,0.00,803.309998,,2013-04-07 18:52:00,
2013-04-07 12:02:00,61.0,28.0,-100.00,SW,226,8.0,17.0,28,-99.99,,,0.00,803.309998,,2013-04-07 19:02:00,
2013-04-07 12:12:00,61.0,28.0,-100.00,SW,226,8.0,17.0,28,-99.99,,,0.00,803.309998,,2013-04-07 19:12:00,
2013-04-07 12:42:00,64.0,25.0,-100.00,West,261,5.0,16.0,22,-99.99,,,0.00,892.570007,,2013-04-07 19:42:00,
2013-04-07 12:53:00,64.0,25.0,-100.00,West,261,5.0,16.0,22,-99.99,,,0.00,892.570007,,2013-04-07 19:53:00,
2013-04-07 13:02:00,64.0,25.0,-100.00,West,261,5.0,16.0,22,-99.99,,,0.00,892.570007,,2013-04-07 20:02:00,
2013-04-07 13:12:00,64.0,25.0,-100.00,West,261,5.0,16.0,22,-99.99,,,0.00,892.570007,,2013-04-07 20:12:00,
2013-04-07 13:43:00,65.0,23.0,-100.00,WSW,241,10.0,20.0,19,-99.99,,,0.00,629.679993,,2013-04-07 20:43:00,
2013-04-07 13:53:00,65.0,23.0,-100.00,WSW,241,10.0,20.0,19,-99.99,,,0.00,629.679993,,2013-04-07 20:53:00,
2013-04-07 14:02:00,65.0,23.0,-100.00,WSW,241,10.0,20.0,19,-99.99,,,0.00,629.679993,,2013-04-07 21:02:00,
2013-04-07 14:12:00,65.0,23.0,-100.00,WSW,241,10.0,20.0,19,-99.99,,,0.00,629.679993,,2013-04-07 21:12:00,
2013-04-07 14:43:00,66.0,21.0,-100.00,WSW,250,15.0,23.0,17,-99.99,,,-99.99,476.970001,,2013-04-07 21:43:00,
2013-04-07 14:54:00,66.0,21.0,-100.00,WSW,250,15.0,23.0,17,-99.99,,,-99.99,476.970001,,2013-04-07 21:54:00,
2013-04-07 15:03:00,66.0,21.0,-100.00,WSW,250,15.0,23.0,17,-99.99,,,-99.99,476.970001,,2013-04-07 22:03:00,
2013-04-07 15:13:00,66.0,21.0,-100.00,WSW,250,15.0,23.0,17,-99.99,,,-99.99,476.970001,,2013-04-07 22:13:00,
2013-04-07 15:43:00,65.0,19.0,-100.00,WSW,253,17.0,26.0,16,-99.99,,,0.00,330.649994,,2013-04-07 22:43:00,
2013-04-07 15:53:00,65.0,19.0,-100.00,WSW,253,17.0,26.0,16,-99.99,,,0.00,330.649994,,2013-04-07 22:53:00,
2013-04-07 16:03:00,65.0,19.0,-100.00,WSW,253,17.0,26.0,16,-99.99,,,0.00,330.649994,,2013-04-07 23:03:00,
2013-04-07 16:12:00,65.0,19.0,-100.00,WSW,253,17.0,26.0,16,-99.99,,,0.00,330.649994,,2013-04-07 23:12:00,
2013-04-07 16:42:00,63.0,20.0,-100.00,WSW,250,16.0,26.0,18,-99.99,,,0.00,233.720001,,2013-04-07 23:42:00,
2013-04-07 16:52:00,63.0,20.0,-100.00,WSW,250,16.0,26.0,18,-99.99,,,0.00,233.720001,,2013-04-07 23:52:00,
2013-04-07 17:02:00,63.0,20.0,-100.00,WSW,250,16.0,26.0,18,-99.99,,,0.00,233.720001,,2013-04-08 00:02:00,
2013-04-07 17:12:00,63.0,20.0,-100.00,WSW,250,16.0,26.0,18,-99.99,,,0.00,233.720001,,2013-04-08 00:12:00,
2013-04-07 17:42:00,60.0,22.0,-100.00,WSW,251,17.0,30.0,22,-99.99,,,0.00,134.000000,,2013-04-08 00:42:00,
2013-04-07 17:52:00,60.0,22.0,-100.00,WSW,251,17.0,30.0,22,-99.99,,,0.00,134.000000,,2013-04-08 00:52:00,
2013-04-07 18:02:00,60.0,22.0,-100.00,WSW,251,17.0,30.0,22,-99.99,,,0.00,134.000000,,2013-04-08 01:02:00,
2013-04-07 18:12:00,60.0,22.0,-100.00,WSW,251,17.0,30.0,22,-99.99,,,0.00,134.000000,,2013-04-08 01:12:00,
2013-04-07 18:43:00,58.0,23.0,-100.00,West,260,19.0,31.0,25,-99.99,,,0.00,103.440002,,2013-04-08 01:43:00,
2013-04-07 18:55:00,58.0,23.0,-100.00,West,260,19.0,31.0,25,-99.99,,,0.00,103.440002,,2013-04-08 01:55:00,
2013-04-07 19:02:00,58.0,23.0,-100.00,West,260,19.0,31.0,25,-99.99,,,0.00,103.440002,,2013-04-08 02:02:00,
2013-04-07 19:12:00,58.0,23.0,-100.00,West,260,19.0,31.0,25,-99.99,,,0.00,103.440002,,2013-04-08 02:12:00,
2013-04-07 19:45:00,56.0,23.0,-100.00,WNW,282,14.0,25.0,27,-99.99,,,0.00,43.700001,,2013-04-08 02:45:00,
2013-04-07 19:53:00,56.0,23.0,-100.00,WNW,282,14.0,25.0,27,-99.99,,,0.00,43.700001,,2013-04-08 02:53:00,
2013-04-07 20:05:00,56.0,23.0,-100.00,WNW,282,14.0,25.0,27,-99.99,,,0.00,43.700001,,2013-04-08 03:05:00,
2013-04-07 20:13:00,56.0,23.0,-100.00,WNW,282,14.0,25.0,27,-99.99,,,0.00,43.700001,,2013-04-08 03:13:00,
2013-04-07 20:46:00,54.0,23.0,-100.00,WNW,285,14.0,22.0,29,-99.99,,,0.00,0.000000,,2013-04-08 03:46:00,
2013-04-07 20:55:00,54.0,23.0,-100.00,WNW,285,14.0,22.0,29,-99.99,,,0.00,0.000000,,2013-04-08 03:55:00,
2013-04-07 21:02:00,54.0,23.0,-100.00,WNW,285,14.0,22.0,29,-99.99,,,0.00,0.000000,,2013-04-08 04:02:00,
2013-04-07 21:12:00,54.0,23.0,-100.00,WNW,285,14.0,22.0,29,-99.99,,,0.00,0.000000,,2013-04-08 04:12:00,
2013-04-07 21:43:00,52.0,21.0,-100.00,WSW,258,13.0,23.0,29,-99.99,,,0.00,0.000000,,2013-04-08 04:43:00,
2013-04-07 21:52:00,52.0,21.0,-100.00,WSW,258,13.0,23.0,29,-99.99,,,0.00,0.000000,,2013-04-08 04:52:00,
2013-04-07 22:02:00,52.0,21.0,-100.00,WSW,258,13.0,23.0,29,-99.99,,,0.00,0.000000,,2013-04-08 05:02:00,
2013-04-07 22:12:00,52.0,21.0,-100.00,WSW,258,13.0,23.0,29,-99.99,,,0.00,0.000000,,2013-04-08 05:12:00,
2013-04-07 22:42:00,49.0,25.0,-100.00,West,259,14.0,23.0,39,-99.99,,,0.00,0.000000,,2013-04-08 05:42:00,
2013-04-07 22:52:00,49.0,25.0,-100.00,West,259,14.0,23.0,39,-99.99,,,0.00,0.000000,,2013-04-08 05:52:00,
2013-04-07 23:02:00,49.0,25.0,-100.00,West,259,14.0,23.0,39,-99.99,,,0.00,0.000000,,2013-04-08 06:02:00,
2013-04-07 23:12:00,49.0,25.0,-100.00,West,259,14.0,23.0,39,-99.99,,,0.00,0.000000,,2013-04-08 06:12:00,
2013-04-07 23:42:00,47.0,23.0,-100.00,West,270,7.0,13.0,39,-99.99,,,0.00,0.000000,,2013-04-08 06:42:00,
2013-04-07 23:52:00,47.0,23.0,-100.00,West,270,7.0,13.0,39,-99.99,,,0.00,0.000000,,2013-04-08 06:52:00,